Time;durP1;ratioP1;P1;durP2;ratioP2;P2;SDS_P1;SDS_P2;PMS_P1;PMS_P2;Temp;Humidity;BMP_temperature;BMP_pressure;BME280_temperature;BME280_humidity;BME280_pressure;Samples;Min_cycle;Max_cycle;Signal;HPM_P1;HPM_P2
2024/01/11 00:00:40;;;;;;;251.53;102.37;;;;;;;;;;5043825;28;20037;-85
2024/01/11 00:03:05;;;;;;;155.70;72.23;;;;;;;;;;5047543;28;20186;-85
2024/01/11 00:05:30;;;;;;;174.00;82.97;;;;;;;;;;5047406;28;20028;-85
2024/01/11 00:07:56;;;;;;;182.17;95.70;;;;;;;;;;5046330;28;20075;-85
2024/01/11 00:10:22;;;;;;;152.20;78.50;;;;;;;;;;5049106;28;20033;-85
2024/01/11 00:12:47;;;;;;;160.10;75.23;;;;;;;;;;5044747;28;20025;-82
2024/01/11 00:15:13;;;;;;;171.23;83.57;;;;;;;;;;5045270;28;20024;-84
2024/01/11 00:17:38;;;;;;;179.33;95.43;;;;;;;;;;5042646;28;20109;-85
2024/01/11 00:20:03;;;;;;;162.10;81.03;;;;;;;;;;5046853;28;20690;-85
2024/01/11 00:22:29;;;;;;;193.60;94.40;;;;;;;;;;5045036;28;20086;-85
2024/01/11 00:24:55;;;;;;;236.37;102.23;;;;;;;;;;5045747;28;20033;-84
2024/01/11 00:27:20;;;;;;;214.50;110.67;;;;;;;;;;5043534;28;20029;-83
2024/01/11 00:29:45;;;;;;;209.20;100.30;;;;;;;;;;5046708;28;20407;-84
2024/01/11 00:32:11;;;;;;;186.10;92.23;;;;;;;;;;5044291;28;20032;-83
2024/01/11 00:34:36;;;;;;;163.73;80.60;;;;;;;;;;5043924;28;20620;-84
2024/01/11 00:37:02;;;;;;;174.73;80.90;;;;;;;;;;5045576;28;20067;-83
2024/01/11 00:39:27;;;;;;;205.47;95.47;;;;;;;;;;5025817;28;20025;-85
2024/01/11 00:41:53;;;;;;;185.13;85.00;;;;;;;;;;5043673;28;20040;-84
2024/01/11 00:44:18;;;;;;;262.60;119.73;;;;;;;;;;5044249;28;20025;-85
2024/01/11 00:46:43;;;;;;;384.93;168.43;;;;;;;;;;5044396;28;20060;-85
2024/01/11 00:49:08;;;;;;;282.93;111.43;;;;;;;;;;5041993;28;20631;-84
2024/01/11 00:51:34;;;;;;;295.30;125.67;;;;;;;;;;5036267;28;20166;-84
2024/01/11 00:53:59;;;;;;;283.17;116.27;;;;;;;;;;5024218;28;20617;-84
2024/01/11 00:56:26;;;;;;;161.03;66.53;;;;;;;;;;5039645;28;20033;-85
2024/01/11 00:58:51;;;;;;;87.53;39.43;;;;;;;;;;5043834;28;20032;-84
2024/01/11 01:01:16;;;;;;;120.73;57.57;;;;;;;;;;5042234;28;20021;-85
2024/01/11 01:03:43;;;;;;;130.63;59.53;;;;;;;;;;5043580;28;20029;-85
2024/01/11 01:06:08;;;;;;;137.87;63.50;;;;;;;;;;5042772;28;20017;-85
2024/01/11 01:08:34;;;;;;;279.37;115.07;;;;;;;;;;5043676;28;20024;-84
2024/01/11 01:10:59;;;;;;;123.60;57.90;;;;;;;;;;5041836;28;20601;-85
2024/01/11 01:13:25;;;;;;;111.60;53.03;;;;;;;;;;5044416;28;20663;-84
2024/01/11 01:15:50;;;;;;;136.97;59.27;;;;;;;;;;5041835;28;20025;-84
2024/01/11 01:18:16;;;;;;;115.90;55.13;;;;;;;;;;5042832;28;20056;-84
2024/01/11 01:20:41;;;;;;;112.27;52.20;;;;;;;;;;5041299;28;20696;-84
2024/01/11 01:23:06;;;;;;;93.63;42.90;;;;;;;;;;5043450;28;20112;-85
2024/01/11 01:25:34;;;;;;;105.37;47.63;;;;;;;;;;5041821;28;20025;-84
2024/01/11 01:28:00;;;;;;;229.18;89.70;;;;;;;;;;5043720;28;20024;-84
2024/01/11 01:30:26;;;;;;;444.43;153.47;;;;;;;;;;5044190;28;20563;-84
2024/01/11 01:32:51;;;;;;;198.20;76.23;;;;;;;;;;5042113;28;20017;-84
2024/01/11 01:35:17;;;;;;;125.43;54.27;;;;;;;;;;5041619;28;20012;-85
2024/01/11 01:37:42;;;;;;;124.57;57.83;;;;;;;;;;5042929;28;20513;-85
2024/01/11 01:40:08;;;;;;;124.63;61.50;;;;;;;;;;5043612;28;20025;-84
2024/01/11 01:42:34;;;;;;;171.93;68.37;;;;;;;;;;5042427;28;20077;-84
2024/01/11 01:44:59;;;;;;;286.70;101.53;;;;;;;;;;5045168;28;20492;-84
2024/01/11 01:47:26;;;;;;;444.53;142.37;;;;;;;;;;5042409;28;20055;-84
2024/01/11 01:49:51;;;;;;;240.10;88.27;;;;;;;;;;5041939;28;20070;-84
2024/01/11 01:52:17;;;;;;;345.67;118.90;;;;;;;;;;5040409;28;20013;-84
2024/01/11 01:54:43;;;;;;;229.90;83.80;;;;;;;;;;5043229;28;20024;-84
2024/01/11 01:57:10;;;;;;;311.77;109.97;;;;;;;;;;5044019;28;20649;-84
2024/01/11 01:59:35;;;;;;;282.20;97.00;;;;;;;;;;5040619;28;20556;-84
2024/01/11 02:02:01;;;;;;;311.27;99.90;;;;;;;;;;5044840;28;20021;-84
2024/01/11 02:04:26;;;;;;;142.07;51.93;;;;;;;;;;5042906;28;20654;-84
2024/01/11 02:06:53;;;;;;;195.97;72.80;;;;;;;;;;5039966;28;20524;-84
2024/01/11 02:09:18;;;;;;;172.30;66.50;;;;;;;;;;5041829;28;20483;-85
2024/01/11 02:11:44;;;;;;;151.70;63.67;;;;;;;;;;5043200;28;20052;-84
2024/01/11 02:14:10;;;;;;;281.97;106.07;;;;;;;;;;5040763;28;20020;-85
2024/01/11 02:16:35;;;;;;;133.63;56.30;;;;;;;;;;5043003;28;20056;-84
2024/01/11 02:19:01;;;;;;;111.87;50.10;;;;;;;;;;5042023;28;20016;-84
2024/01/11 02:21:27;;;;;;;142.07;62.13;;;;;;;;;;5041377;28;20723;-85
2024/01/11 02:24:01;;;;;;;126.57;58.00;;;;;;;;;;5041348;28;20020;-85
2024/01/11 02:26:27;;;;;;;191.90;88.67;;;;;;;;;;5041729;28;20075;-85
2024/01/11 02:28:52;;;;;;;206.03;94.07;;;;;;;;;;5042037;28;20017;-84
2024/01/11 02:31:17;;;;;;;218.07;107.70;;;;;;;;;;5024186;28;20048;-84
2024/01/11 02:33:43;;;;;;;146.90;67.47;;;;;;;;;;5041498;28;20032;-84
2024/01/11 02:36:08;;;;;;;214.20;100.93;;;;;;;;;;5027351;28;20078;-84
2024/01/11 02:38:34;;;;;;;278.00;129.87;;;;;;;;;;5044267;28;20017;-85
2024/01/11 02:41:00;;;;;;;172.67;80.63;;;;;;;;;;5040400;28;20048;-83
2024/01/11 02:43:25;;;;;;;190.30;95.87;;;;;;;;;;5043181;28;20045;-84
2024/01/11 02:45:53;;;;;;;162.53;80.03;;;;;;;;;;5041999;28;20021;-83
2024/01/11 02:48:19;;;;;;;149.40;63.20;;;;;;;;;;5040352;28;20644;-83
2024/01/11 02:50:44;;;;;;;127.87;55.40;;;;;;;;;;5041019;28;20037;-83
2024/01/11 02:53:09;;;;;;;146.80;74.30;;;;;;;;;;5041217;28;20099;-85
2024/01/11 02:55:35;;;;;;;142.67;64.47;;;;;;;;;;5038663;28;20677;-85
2024/01/11 02:58:00;;;;;;;112.13;53.73;;;;;;;;;;5022182;28;20029;-85
2024/01/11 03:00:25;;;;;;;99.37;45.53;;;;;;;;;;5042061;28;20055;-85
2024/01/11 03:02:51;;;;;;;93.33;45.03;;;;;;;;;;5039570;28;20498;-85
2024/01/11 03:05:16;;;;;;;97.17;42.77;;;;;;;;;;5042779;28;20036;-85
2024/01/11 03:07:41;;;;;;;104.07;55.47;;;;;;;;;;5039830;28;20494;-85
2024/01/11 03:10:07;;;;;;;95.87;44.93;;;;;;;;;;5042094;28;20025;-85
2024/01/11 03:12:32;;;;;;;123.50;62.50;;;;;;;;;;5039497;28;20029;-85
2024/01/11 03:14:57;;;;;;;88.60;42.67;;;;;;;;;;5040389;28;20120;-84
2024/01/11 03:17:23;;;;;;;89.77;43.53;;;;;;;;;;5042110;28;20581;-83
2024/01/11 03:19:48;;;;;;;86.30;44.67;;;;;;;;;;5039132;28;20110;-84
2024/01/11 03:22:14;;;;;;;80.00;44.20;;;;;;;;;;5043555;28;20567;-85
2024/01/11 03:24:39;;;;;;;77.43;41.73;;;;;;;;;;5039460;28;20612;-84
2024/01/11 03:27:05;;;;;;;75.63;36.30;;;;;;;;;;5043734;28;20029;-83
2024/01/11 03:29:31;;;;;;;124.73;68.57;;;;;;;;;;5039225;28;20056;-84
2024/01/11 03:31:56;;;;;;;135.83;68.17;;;;;;;;;;5042074;28;20052;-84
2024/01/11 03:34:22;;;;;;;95.37;46.07;;;;;;;;;;5039133;28;20094;-84
2024/01/11 03:36:47;;;;;;;99.03;40.53;;;;;;;;;;5041860;28;20039;-85
2024/01/11 03:39:12;;;;;;;97.60;42.03;;;;;;;;;;5043532;28;20635;-84
2024/01/11 03:41:43;;;;;;;100.40;45.40;;;;;;;;;;5046835;28;20029;-84
2024/01/11 03:44:08;;;;;;;75.83;38.27;;;;;;;;;;5046868;28;20092;-85
2024/01/11 03:46:33;;;;;;;112.67;44.87;;;;;;;;;;5045137;28;20171;-84
2024/01/11 03:48:59;;;;;;;77.50;36.93;;;;;;;;;;5047741;28;20009;-84
2024/01/11 03:51:25;;;;;;;152.37;78.33;;;;;;;;;;5042949;28;20028;-84
2024/01/11 03:53:50;;;;;;;117.23;53.57;;;;;;;;;;5044719;28;20503;-84
2024/01/11 03:56:15;;;;;;;81.10;40.50;;;;;;;;;;5044095;28;20037;-85
2024/01/11 03:58:44;;;;;;;145.97;61.67;;;;;;;;;;5045769;28;20036;-84
2024/01/11 04:01:10;;;;;;;68.65;34.63;;;;;;;;;;5046575;28;20024;-85
2024/01/11 04:03:35;;;;;;;116.07;48.33;;;;;;;;;;5046990;28;20025;-84
2024/01/11 04:06:01;;;;;;;115.27;45.27;;;;;;;;;;5044876;28;20106;-82
2024/01/11 04:08:27;;;;;;;92.07;44.67;;;;;;;;;;5047190;28;20421;-84
2024/01/11 04:10:52;;;;;;;52.07;24.90;;;;;;;;;;5047042;28;20024;-85
2024/01/11 04:13:17;;;;;;;93.43;44.37;;;;;;;;;;5047370;28;20017;-85
2024/01/11 04:15:43;;;;;;;120.33;54.20;;;;;;;;;;5044755;28;20083;-84
2024/01/11 04:18:08;;;;;;;95.10;48.77;;;;;;;;;;5043258;28;20489;-85
2024/01/11 04:20:34;;;;;;;86.93;44.47;;;;;;;;;;5045188;28;20024;-84
2024/01/11 04:22:59;;;;;;;102.83;47.10;;;;;;;;;;5045826;28;20113;-85
2024/01/11 04:25:24;;;;;;;50.93;26.13;;;;;;;;;;5048645;28;20028;-85
2024/01/11 04:27:50;;;;;;;47.00;26.63;;;;;;;;;;5045476;28;20044;-85
2024/01/11 04:30:16;;;;;;;71.73;39.97;;;;;;;;;;5045953;28;20021;-83
2024/01/11 04:32:41;;;;;;;44.37;21.73;;;;;;;;;;5046078;28;20021;-83
2024/01/11 04:35:07;;;;;;;51.73;26.33;;;;;;;;;;5047736;28;20021;-84
2024/01/11 04:37:32;;;;;;;51.53;27.63;;;;;;;;;;5047254;28;20111;-84
2024/01/11 04:39:59;;;;;;;32.63;18.23;;;;;;;;;;5046506;28;20017;-83
2024/01/11 04:42:26;;;;;;;32.70;18.73;;;;;;;;;;5047603;28;20524;-83
2024/01/11 04:44:51;;;;;;;36.43;19.20;;;;;;;;;;5048030;28;20205;-83
2024/01/11 04:47:17;;;;;;;82.53;37.00;;;;;;;;;;5048177;28;20017;-85
2024/01/11 04:49:42;;;;;;;52.87;31.20;;;;;;;;;;5046430;28;20104;-85
2024/01/11 04:52:08;;;;;;;53.07;26.97;;;;;;;;;;5046486;28;20057;-86
2024/01/11 04:54:33;;;;;;;39.27;21.87;;;;;;;;;;5047548;28;20178;-85
2024/01/11 04:56:58;;;;;;;42.50;22.33;;;;;;;;;;5047196;28;20025;-85
2024/01/11 04:59:24;;;;;;;54.77;26.67;;;;;;;;;;5047021;28;20040;-85
2024/01/11 05:01:49;;;;;;;60.57;28.37;;;;;;;;;;5048560;28;20049;-85
2024/01/11 05:04:14;;;;;;;64.97;30.77;;;;;;;;;;5047147;28;20629;-84
2024/01/11 05:06:40;;;;;;;79.77;35.40;;;;;;;;;;5046556;28;20651;-85
2024/01/11 05:09:05;;;;;;;84.30;35.63;;;;;;;;;;5047842;28;20013;-84
2024/01/11 05:11:30;;;;;;;94.90;37.80;;;;;;;;;;5043693;28;20383;-85
2024/01/11 05:13:56;;;;;;;76.97;37.47;;;;;;;;;;5044473;28;20051;-85
2024/01/11 05:16:21;;;;;;;75.50;36.77;;;;;;;;;;5041707;28;20702;-84
2024/01/11 05:18:46;;;;;;;62.37;32.20;;;;;;;;;;5043550;28;20124;-85
2024/01/11 05:21:12;;;;;;;65.87;33.30;;;;;;;;;;5041674;28;20410;-85
2024/01/11 05:23:37;;;;;;;63.83;32.33;;;;;;;;;;5044978;28;20017;-84
2024/01/11 05:26:02;;;;;;;68.33;34.53;;;;;;;;;;5041517;28;20032;-84
2024/01/11 05:28:28;;;;;;;72.83;36.87;;;;;;;;;;5043200;28;20013;-84
2024/01/11 05:30:53;;;;;;;70.43;33.50;;;;;;;;;;5042006;28;20032;-84
2024/01/11 05:33:18;;;;;;;66.27;34.37;;;;;;;;;;5040571;28;20048;-85
2024/01/11 05:35:43;;;;;;;92.10;39.20;;;;;;;;;;5043104;28;20647;-84
2024/01/11 05:38:09;;;;;;;77.47;38.50;;;;;;;;;;5041851;28;20075;-84
2024/01/11 05:40:34;;;;;;;86.07;42.77;;;;;;;;;;5042497;28;20032;-85
2024/01/11 05:42:59;;;;;;;77.87;38.43;;;;;;;;;;5040895;28;20017;-84
2024/01/11 05:45:25;;;;;;;115.87;42.07;;;;;;;;;;5042594;28;20017;-84
2024/01/11 05:47:50;;;;;;;114.03;60.20;;;;;;;;;;5042033;28;20028;-86
2024/01/11 05:50:15;;;;;;;120.03;69.27;;;;;;;;;;5042490;28;20623;-86
2024/01/11 05:52:41;;;;;;;78.60;41.43;;;;;;;;;;5041730;28;20566;-85
2024/01/11 05:55:06;;;;;;;71.10;35.47;;;;;;;;;;5042691;28;20029;-86
2024/01/11 05:57:32;;;;;;;72.70;34.70;;;;;;;;;;5040708;28;20024;-83
2024/01/11 05:59:57;;;;;;;69.27;33.10;;;;;;;;;;5039348;28;20510;-83
2024/01/11 06:02:22;;;;;;;78.67;38.70;;;;;;;;;;5040493;28;20051;-85
2024/01/11 06:04:49;;;;;;;64.77;32.43;;;;;;;;;;5041589;28;20116;-86
2024/01/11 06:07:14;;;;;;;79.77;39.17;;;;;;;;;;5041041;28;20113;-86
2024/01/11 06:09:40;;;;;;;154.17;83.47;;;;;;;;;;5018569;28;20041;-85
2024/01/11 06:12:05;;;;;;;130.37;66.70;;;;;;;;;;5020893;28;20032;-85
2024/01/11 06:14:30;;;;;;;157.03;81.87;;;;;;;;;;5001763;28;20978;-85
2024/01/11 06:16:56;;;;;;;96.07;49.20;;;;;;;;;;5020428;28;20077;-86
2024/01/11 06:19:21;;;;;;;92.00;45.90;;;;;;;;;;5018917;28;20045;-85
2024/01/11 06:21:47;;;;;;;159.30;76.23;;;;;;;;;;5004007;28;20029;-84
2024/01/11 06:24:12;;;;;;;101.07;47.23;;;;;;;;;;5018384;28;20025;-85
2024/01/11 06:26:37;;;;;;;96.60;45.83;;;;;;;;;;5019196;28;20526;-85
2024/01/11 06:29:04;;;;;;;257.30;119.60;;;;;;;;;;5020358;28;20029;-83
2024/01/11 06:31:29;;;;;;;162.87;83.50;;;;;;;;;;5015830;28;20020;-84
2024/01/11 06:33:55;;;;;;;260.00;130.17;;;;;;;;;;5019817;28;20021;-84
2024/01/11 06:36:21;;;;;;;75.17;38.43;;;;;;;;;;5016501;28;20021;-85
2024/01/11 06:38:46;;;;;;;84.67;45.00;;;;;;;;;;5020596;28;20096;-84
2024/01/11 06:41:11;;;;;;;79.07;40.07;;;;;;;;;;5033059;28;20145;-85
2024/01/11 06:43:37;;;;;;;101.77;55.67;;;;;;;;;;5043149;28;20005;-84
2024/01/11 06:46:03;;;;;;;130.47;65.57;;;;;;;;;;5039052;28;20013;-85
2024/01/11 06:48:28;;;;;;;102.00;56.20;;;;;;;;;;5042490;28;20021;-85
2024/01/11 06:50:54;;;;;;;108.60;56.63;;;;;;;;;;5045871;28;20031;-85
2024/01/11 06:53:19;;;;;;;71.07;39.53;;;;;;;;;;5050099;28;20206;-85
2024/01/11 06:55:44;;;;;;;67.37;35.07;;;;;;;;;;5066317;28;20070;-85
2024/01/11 06:58:09;;;;;;;105.30;41.53;;;;;;;;;;5039646;28;20035;-85
2024/01/11 07:00:35;;;;;;;360.73;137.47;;;;;;;;;;5040784;28;20024;-83
2024/01/11 07:03:01;;;;;;;78.47;35.70;;;;;;;;;;5036273;28;20017;-85
2024/01/11 07:05:27;;;;;;;55.87;29.27;;;;;;;;;;5039201;28;20082;-85
2024/01/11 07:07:52;;;;;;;64.90;33.57;;;;;;;;;;5038569;28;20013;-85
2024/01/11 07:10:18;;;;;;;33.30;22.03;;;;;;;;;;5038169;28;20647;-85
2024/01/11 07:12:45;;;;;;;65.30;34.30;;;;;;;;;;5043021;28;20032;-86
2024/01/11 07:15:11;;;;;;;34.80;20.70;;;;;;;;;;5046980;28;20033;-86
2024/01/11 07:17:36;;;;;;;89.70;46.83;;;;;;;;;;5039076;28;20060;-85
2024/01/11 07:20:04;;;;;;;92.13;53.97;;;;;;;;;;5042445;28;20559;-85
2024/01/11 07:22:29;;;;;;;129.93;60.10;;;;;;;;;;5046855;28;20024;-86
2024/01/11 07:24:54;;;;;;;27.07;15.90;;;;;;;;;;5043000;28;20613;-87
2024/01/11 07:27:19;;;;;;;172.93;83.33;;;;;;;;;;5035878;28;20082;-87
2024/01/11 07:29:45;;;;;;;129.27;63.20;;;;;;;;;;5046920;28;20119;-86
2024/01/11 07:32:10;;;;;;;69.60;31.27;;;;;;;;;;5047045;28;20593;-86
2024/01/11 07:34:36;;;;;;;38.47;25.00;;;;;;;;;;5055281;28;20013;-85
2024/01/11 07:37:02;;;;;;;70.73;38.43;;;;;;;;;;5057985;28;20028;-87
2024/01/11 07:39:27;;;;;;;236.33;93.50;;;;;;;;;;5065998;28;20204;-86
2024/01/11 07:41:53;;;;;;;95.23;43.53;;;;;;;;;;5050143;28;20020;-86
2024/01/11 07:44:20;;;;;;;78.43;42.90;;;;;;;;;;5042715;28;20517;-85
2024/01/11 07:46:45;;;;;;;337.70;135.20;;;;;;;;;;5037741;28;20024;-86
2024/01/11 07:49:12;;;;;;;545.57;227.87;;;;;;;;;;5041851;28;20020;-86
2024/01/11 07:51:38;;;;;;;69.57;37.27;;;;;;;;;;5043533;28;20573;-85
2024/01/11 07:54:04;;;;;;;385.73;165.00;;;;;;;;;;5044502;28;20059;-84
2024/01/11 07:56:30;;;;;;;227.30;95.17;;;;;;;;;;5044099;28;20025;-84
2024/01/11 07:58:55;;;;;;;189.90;72.73;;;;;;;;;;5044558;28;20555;-84
2024/01/11 08:01:20;;;;;;;98.53;47.23;;;;;;;;;;5043806;28;20412;-84
2024/01/11 08:03:47;;;;;;;340.50;169.37;;;;;;;;;;5053049;28;20119;-85
2024/01/11 08:06:12;;;;;;;120.70;55.00;;;;;;;;;;5045412;28;20537;-85
2024/01/11 08:08:38;;;;;;;58.73;31.73;;;;;;;;;;5048228;28;20017;-84
2024/01/11 08:11:04;;;;;;;86.70;46.87;;;;;;;;;;5050204;28;20475;-86
2024/01/11 08:13:31;;;;;;;33.73;18.97;;;;;;;;;;5048779;28;20115;-85
2024/01/11 08:15:57;;;;;;;71.33;40.33;;;;;;;;;;5051727;28;20162;-85
2024/01/11 08:18:23;;;;;;;56.73;31.93;;;;;;;;;;5054304;28;20059;-86
2024/01/11 08:20:49;;;;;;;46.03;27.30;;;;;;;;;;5061550;28;20025;-85
2024/01/11 08:23:14;;;;;;;38.37;24.57;;;;;;;;;;5072706;28;20076;-85
2024/01/11 08:25:39;;;;;;;53.07;32.73;;;;;;;;;;5051758;28;20017;-85
2024/01/11 08:28:04;;;;;;;195.00;108.47;;;;;;;;;;5049126;28;20368;-84
2024/01/11 08:30:30;;;;;;;349.05;185.55;;;;;;;;;;5050729;28;20115;-83
2024/01/11 08:32:55;;;;;;;191.20;101.38;;;;;;;;;;5048388;28;20394;-84
2024/01/11 08:35:21;;;;;;;68.20;35.22;;;;;;;;;;5050603;28;20036;-85
2024/01/11 08:37:47;;;;;;;157.55;104.53;;;;;;;;;;5049261;28;20021;-85
2024/01/11 08:40:12;;;;;;;107.60;66.13;;;;;;;;;;5047895;28;20461;-85
2024/01/11 08:42:37;;;;;;;71.28;46.00;;;;;;;;;;5048750;28;20025;-85
2024/01/11 08:45:06;;;;;;;58.90;34.97;;;;;;;;;;5048562;28;20020;-85
2024/01/11 08:47:32;;;;;;;100.15;67.03;;;;;;;;;;5037192;28;20021;-85
2024/01/11 08:49:57;;;;;;;39.90;25.63;;;;;;;;;;5048536;28;20051;-86
2024/01/11 08:52:23;;;;;;;25.20;17.63;;;;;;;;;;5048673;28;20098;-84
2024/01/11 08:54:49;;;;;;;46.00;32.20;;;;;;;;;;5045563;28;20025;-85
2024/01/11 08:57:15;;;;;;;43.95;27.35;;;;;;;;;;5030464;28;20395;-84
2024/01/11 08:59:41;;;;;;;32.28;21.17;;;;;;;;;;5051664;28;20024;-86
2024/01/11 09:02:06;;;;;;;32.63;23.08;;;;;;;;;;5052493;28;20028;-85
2024/01/11 09:04:31;;;;;;;36.65;25.50;;;;;;;;;;5067112;28;20052;-86
2024/01/11 09:06:57;;;;;;;54.40;35.20;;;;;;;;;;5069375;28;20017;-86
2024/01/11 09:09:22;;;;;;;50.22;33.45;;;;;;;;;;5048864;28;20529;-85
2024/01/11 09:11:47;;;;;;;43.60;30.08;;;;;;;;;;5050659;28;20450;-87
2024/01/11 09:14:14;;;;;;;42.65;29.33;;;;;;;;;;5048339;28;20096;-85
2024/01/11 09:16:40;;;;;;;56.95;37.53;;;;;;;;;;5047553;28;20439;-84
2024/01/11 09:19:05;;;;;;;72.05;39.78;;;;;;;;;;5048505;28;20578;-85
2024/01/11 09:21:30;;;;;;;64.22;38.58;;;;;;;;;;5047435;28;20048;-87
2024/01/11 09:23:56;;;;;;;63.95;37.30;;;;;;;;;;5049871;28;20108;-86
2024/01/11 09:26:22;;;;;;;48.38;32.45;;;;;;;;;;5049801;28;20027;-85
2024/01/11 09:28:48;;;;;;;42.00;28.20;;;;;;;;;;5045848;28;20104;-86
2024/01/11 09:31:13;;;;;;;45.10;30.58;;;;;;;;;;5043855;28;20101;-86
2024/01/11 09:33:38;;;;;;;38.58;27.35;;;;;;;;;;5041075;28;20056;-85
2024/01/11 09:36:04;;;;;;;44.78;31.00;;;;;;;;;;5042146;28;20611;-85
2024/01/11 09:38:29;;;;;;;58.22;37.03;;;;;;;;;;5041764;28;20048;-85
2024/01/11 09:41:14;;;;;;;68.40;43.38;;;;;;;;;;5042720;28;20016;-86
2024/01/11 09:43:43;;;;;;;54.50;37.90;;;;;;;;;;5040658;28;20116;-86
2024/01/11 09:46:09;;;;;;;80.55;51.78;;;;;;;;;;5042584;28;20013;-85
2024/01/11 09:48:35;;;;;;;41.20;29.83;;;;;;;;;;5042990;28;20812;-86
2024/01/11 09:51:02;;;;;;;39.15;28.50;;;;;;;;;;5042903;28;20521;-85
2024/01/11 09:53:28;;;;;;;86.65;61.13;;;;;;;;;;5042006;28;20024;-86
2024/01/11 09:55:53;;;;;;;67.95;42.47;;;;;;;;;;5043249;28;20044;-86
2024/01/11 09:58:20;;;;;;;58.80;39.67;;;;;;;;;;5040116;28;20052;-85
2024/01/11 10:00:46;;;;;;;53.47;35.13;;;;;;;;;;5041239;28;20033;-85
2024/01/11 10:03:12;;;;;;;84.55;53.28;;;;;;;;;;5038847;28;20022;-85
2024/01/11 10:05:38;;;;;;;40.15;24.95;;;;;;;;;;5030617;28;20488;-85
2024/01/11 10:08:03;;;;;;;109.93;55.80;;;;;;;;;;5041015;28;20017;-86
2024/01/11 10:10:28;;;;;;;104.68;49.80;;;;;;;;;;5038902;28;20012;-86
2024/01/11 10:12:54;;;;;;;82.55;46.35;;;;;;;;;;5043563;28;20020;-85
2024/01/11 10:15:24;;;;;;;71.50;41.80;;;;;;;;;;5039754;28;20036;-87
2024/01/11 10:17:49;;;;;;;;;;;;;;;;;;5043834;28;20048;-86
2024/01/11 10:20:15;;;;;;;39.74;23.16;;;;;;;;;;5046859;28;19916;-86
2024/01/11 10:22:44;;;;;;;25.10;16.92;;;;;;;;;;5047671;28;20053;-86
2024/01/11 10:25:13;;;;;;;42.03;27.20;;;;;;;;;;5046395;28;20025;-88
2024/01/11 10:27:43;;;;;;;70.07;41.40;;;;;;;;;;5045872;28;20029;-87
2024/01/11 10:30:10;;;;;;;51.30;30.75;;;;;;;;;;5043478;28;20650;-88
2024/01/11 10:32:35;;;;;;;51.92;29.60;;;;;;;;;;5045856;28;20016;-86
2024/01/11 10:35:04;;;;;;;76.07;43.10;;;;;;;;;;5044360;28;20089;-87
2024/01/11 10:37:30;;;;;;;;;;;;;;;;;;5046675;28;20108;-86
2024/01/11 10:39:57;;;;;;;43.75;22.48;;;;;;;;;;5045524;28;20078;-86
2024/01/11 10:42:24;;;;;;;78.15;36.67;;;;;;;;;;5046355;28;20032;-87
2024/01/11 10:44:52;;;;;;;58.42;29.00;;;;;;;;;;5039646;28;20032;-85
2024/01/11 10:47:19;;;;;;;69.07;29.85;;;;;;;;;;5043791;28;20175;-88
2024/01/11 10:49:46;;;;;;;33.60;18.73;;;;;;;;;;5044352;28;20486;-87
2024/01/11 10:52:12;;;;;;;26.42;18.40;;;;;;;;;;5043696;28;20225;-87
2024/01/11 10:54:39;;;;;;;21.73;15.60;;;;;;;;;;5046219;28;20033;-85
2024/01/11 10:57:07;;;;;;;25.77;19.02;;;;;;;;;;5025481;28;20043;-84
2024/01/11 10:59:35;;;;;;;27.98;18.27;;;;;;;;;;5042460;28;20047;-88
2024/01/11 11:02:06;;;;;;;30.20;18.15;;;;;;;;;;5043193;28;20021;-88
2024/01/11 11:04:32;;;;;;;32.63;18.02;;;;;;;;;;5042151;28;20394;-88
2024/01/11 11:06:59;;;;;;;45.78;29.27;;;;;;;;;;5042866;28;20528;-87
2024/01/11 11:09:25;;;;;;;44.67;28.50;;;;;;;;;;5041513;28;20538;-87
2024/01/11 11:11:53;;;;;;;103.88;55.30;;;;;;;;;;5027371;28;20023;-85
2024/01/11 11:14:19;;;;;;;;;;;;;;;;;;5048745;28;20025;-87
2024/01/11 11:16:45;;;;;;;31.98;23.48;;;;;;;;;;5025715;28;19924;-86
2024/01/11 11:19:12;;;;;;;30.58;22.17;;;;;;;;;;5041311;28;20135;-86
2024/01/11 11:21:47;;;;;;;26.40;20.10;;;;;;;;;;5043840;28;20021;-86
2024/01/11 11:24:13;;;;;;;29.15;19.98;;;;;;;;;;5042951;28;20578;-87
2024/01/11 11:26:38;;;;;;;30.13;21.50;;;;;;;;;;5043433;28;20022;-86
2024/01/11 11:29:05;;;;;;;36.28;26.67;;;;;;;;;;5040176;28;20013;-86
2024/01/11 11:31:37;;;;;;;28.77;21.40;;;;;;;;;;5042078;28;20044;-87
2024/01/11 11:34:06;;;;;;;35.20;23.77;;;;;;;;;;5041804;28;20736;-86
2024/01/11 11:36:32;;;;;;;27.35;19.33;;;;;;;;;;5041967;28;20060;-88
2024/01/11 11:39:00;;;;;;;19.73;14.02;;;;;;;;;;5044099;28;20029;-85
2024/01/11 11:41:26;;;;;;;25.50;16.77;;;;;;;;;;5044392;28;20029;-86
2024/01/11 11:43:51;;;;;;;18.13;12.85;;;;;;;;;;5043336;28;20032;-87
2024/01/11 11:46:17;;;;;;;19.38;14.77;;;;;;;;;;5041179;28;20040;-86
2024/01/11 11:48:45;;;;;;;19.70;15.35;;;;;;;;;;5041386;28;20025;-87
2024/01/11 11:51:11;;;;;;;17.20;13.90;;;;;;;;;;5040892;28;20031;-88
2024/01/11 11:53:37;;;;;;;31.35;21.05;;;;;;;;;;5029105;28;20029;-86
2024/01/11 11:56:03;;;;;;;26.27;18.27;;;;;;;;;;5042956;28;20100;-85
2024/01/11 11:58:32;;;;;;;22.60;16.88;;;;;;;;;;5045060;28;20062;-86
2024/01/11 12:00:58;;;;;;;20.60;15.52;;;;;;;;;;5051469;28;20171;-86
2024/01/11 12:03:38;;;;;;;15.30;11.52;;;;;;;;;;5049767;28;20104;-86
2024/01/11 12:06:07;;;;;;;21.23;15.93;;;;;;;;;;5048529;28;20029;-86
2024/01/11 12:08:33;;;;;;;23.80;16.48;;;;;;;;;;5033002;28;20055;-86
2024/01/11 12:10:58;;;;;;;20.73;15.18;;;;;;;;;;5051026;28;20106;-86
2024/01/11 12:13:24;;;;;;;31.88;23.02;;;;;;;;;;5060920;28;20025;-86
2024/01/11 12:15:50;;;;;;;29.38;19.48;;;;;;;;;;5062281;28;20041;-85
2024/01/11 12:18:15;;;;;;;30.65;25.52;;;;;;;;;;5064493;28;20101;-86
2024/01/11 12:20:40;;;;;;;27.30;20.15;;;;;;;;;;5060649;28;20457;-84
2024/01/11 12:23:06;;;;;;;26.38;19.92;;;;;;;;;;5063663;28;20032;-84
2024/01/11 12:25:31;;;;;;;28.88;19.42;;;;;;;;;;5062189;28;20022;-83
2024/01/11 12:27:58;;;;;;;27.05;18.33;;;;;;;;;;5037890;28;20009;-85
2024/01/11 12:30:26;;;;;;;23.70;15.65;;;;;;;;;;5064770;28;20021;-84
2024/01/11 12:32:53;;;;;;;25.23;18.23;;;;;;;;;;5067341;28;20084;-84
2024/01/11 12:35:18;;;;;;;27.88;18.15;;;;;;;;;;5038000;28;20039;-86
2024/01/11 12:38:01;;;;;;;26.15;17.23;;;;;;;;;;5064600;28;20538;-86
2024/01/11 12:40:27;;;;;;;73.30;38.78;;;;;;;;;;5067245;28;20032;-84
2024/01/11 12:42:53;;;;;;;20.95;16.30;;;;;;;;;;5061075;28;20056;-85
2024/01/11 12:45:22;;;;;;;21.40;14.98;;;;;;;;;;5070370;28;20040;-86
2024/01/11 12:47:48;;;;;;;135.27;66.93;;;;;;;;;;5066430;28;20020;-85
2024/01/11 12:50:13;;;;;;;40.80;28.20;;;;;;;;;;5071352;28;20041;-85
2024/01/11 12:52:38;;;;;;;33.05;21.25;;;;;;;;;;5071056;28;20021;-85
2024/01/11 12:55:04;;;;;;;35.05;26.38;;;;;;;;;;5070662;28;20071;-84
2024/01/11 12:57:30;;;;;;;54.40;28.48;;;;;;;;;;5074644;28;20032;-84
2024/01/11 13:00:08;;;;;;;41.28;29.83;;;;;;;;;;5053404;28;20089;-86
2024/01/11 13:02:34;;;;;;;30.50;19.25;;;;;;;;;;5070869;28;20017;-86
2024/01/11 13:05:01;;;;;;;32.10;22.02;;;;;;;;;;5075642;28;20024;-85
2024/01/11 13:07:27;;;;;;;23.13;17.48;;;;;;;;;;5075109;28;20024;-85
2024/01/11 13:09:53;;;;;;;28.42;17.50;;;;;;;;;;5069831;28;20032;-85
2024/01/11 13:12:20;;;;;;;19.77;15.23;;;;;;;;;;5071168;28;20025;-86
2024/01/11 13:14:46;;;;;;;24.65;18.33;;;;;;;;;;5070003;28;20028;-86
2024/01/11 13:17:11;;;;;;;41.53;23.67;;;;;;;;;;5061309;28;20042;-86
2024/01/11 13:19:39;;;;;;;57.35;27.80;;;;;;;;;;5061548;28;20012;-85
2024/01/11 13:22:05;;;;;;;34.97;20.27;;;;;;;;;;5066895;28;20028;-86
2024/01/11 13:24:31;;;;;;;33.85;20.30;;;;;;;;;;5062562;28;20022;-85
2024/01/11 13:26:56;;;;;;;22.13;16.05;;;;;;;;;;5057529;28;20060;-85
2024/01/11 13:29:21;;;;;;;95.18;37.50;;;;;;;;;;5050616;28;20021;-85
2024/01/11 13:31:47;;;;;;;283.63;102.03;;;;;;;;;;5043346;28;20036;-86
2024/01/11 13:34:12;;;;;;;199.25;62.55;;;;;;;;;;5037638;28;20029;-85
2024/01/11 13:36:37;;;;;;;48.67;33.20;;;;;;;;;;5048229;28;20264;-85
2024/01/11 13:39:03;;;;;;;27.33;21.42;;;;;;;;;;5047919;28;20123;-85
2024/01/11 13:41:28;;;;;;;25.10;16.98;;;;;;;;;;5050631;28;20021;-85
2024/01/11 13:43:54;;;;;;;26.55;18.70;;;;;;;;;;5049932;28;20094;-86
2024/01/11 13:46:19;;;;;;;29.73;19.63;;;;;;;;;;5048594;28;20066;-86
2024/01/11 13:48:45;;;;;;;188.15;83.25;;;;;;;;;;5048336;28;20386;-87
2024/01/11 13:51:12;;;;;;;110.97;52.50;;;;;;;;;;5049470;28;20060;-85
2024/01/11 13:53:38;;;;;;;31.77;19.13;;;;;;;;;;5049437;28;20600;-87
2024/01/11 13:56:03;;;;;;;48.92;25.70;;;;;;;;;;5048961;28;20124;-88
2024/01/11 13:58:29;;;;;;;31.27;19.08;;;;;;;;;;5048476;28;20059;-87
2024/01/11 14:00:54;;;;;;;29.63;17.90;;;;;;;;;;5047120;28;20135;-87
2024/01/11 14:03:20;;;;;;;132.20;55.97;;;;;;;;;;5048630;28;20047;-89